Time;durP1;ratioP1;P1;durP2;ratioP2;P2;SDS_P1;SDS_P2;PMS_P1;PMS_P2;Temp;Humidity;BMP_temperature;BMP_pressure;BME280_temperature;BME280_humidity;BME280_pressure;Samples;Min_cycle;Max_cycle;Signal;HPM_P1;HPM_P2
2024/01/24 00:02:02;;;;;;;;;;;2.90;99.90;;;;;;5031257;28;19936;-60
2024/01/24 00:04:28;;;;;;;;;;;2.90;99.90;;;;;;5030115;28;19929;-60
2024/01/24 00:06:55;;;;;;;;;;;2.90;99.90;;;;;;5031206;28;19925;-61
2024/01/24 00:09:22;;;;;;;;;;;3.00;99.90;;;;;;5034710;28;19929;-60
2024/01/24 00:11:49;;;;;;;;;;;3.00;99.90;;;;;;5034762;28;19933;-61
2024/01/24 00:14:16;;;;;;;;;;;3.00;99.90;;;;;;5032250;28;19924;-59
2024/01/24 00:16:43;;;;;;;;;;;3.00;99.90;;;;;;5038840;28;20023;-59
2024/01/24 00:19:10;;;;;;;;;;;3.00;99.90;;;;;;5033681;28;19925;-60
2024/01/24 00:21:37;;;;;;;;;;;3.00;99.90;;;;;;5037886;28;19931;-61
2024/01/24 00:24:04;;;;;;;;;;;3.00;99.90;;;;;;5032999;28;19929;-60
2024/01/24 00:26:31;;;;;;;;;;;3.00;99.90;;;;;;5032293;28;20310;-61
2024/01/24 00:28:58;;;;;;;;;;;3.00;99.90;;;;;;5032336;28;19925;-66
2024/01/24 00:31:25;;;;;;;;;;;2.90;99.90;;;;;;5029696;28;19925;-60
2024/01/24 00:33:52;;;;;;;;;;;2.90;99.90;;;;;;5035289;28;19932;-61
2024/01/24 00:36:19;;;;;;;;;;;3.00;99.90;;;;;;5036279;28;19971;-66
2024/01/24 00:38:46;;;;;;;;;;;2.90;99.90;;;;;;5033628;28;19971;-63
2024/01/24 00:41:13;;;;;;;;;;;2.90;99.90;;;;;;5035197;28;19987;-60
2024/01/24 00:43:41;;;;;;;;;;;2.90;99.90;;;;;;5027202;28;20637;-60
2024/01/24 00:46:09;;;;;;;;;;;2.90;99.90;;;;;;5036113;28;20326;-67
2024/01/24 00:48:35;;;;;;;;;;;2.90;99.90;;;;;;5033229;28;19929;-60
2024/01/24 00:51:03;;;;;;;;;;;2.90;99.90;;;;;;5031647;28;20651;-66
2024/01/24 00:53:32;;;;;;;;;;;2.80;99.90;;;;;;5032964;28;20166;-63
2024/01/24 00:55:59;;;;;;;;;;;2.80;99.90;;;;;;5031371;28;20032;-63
2024/01/24 00:58:26;;;;;;;;;;;2.80;99.90;;;;;;5039891;28;19983;-59
2024/01/24 01:00:53;;;;;;;;;;;2.80;99.90;;;;;;5032201;28;19961;-60
2024/01/24 01:03:20;;;;;;;;;;;2.80;99.90;;;;;;5031235;28;19925;-61
2024/01/24 01:05:46;;;;;;;;;;;2.80;99.90;;;;;;5030835;28;19979;-62
2024/01/24 01:08:13;;;;;;;;;;;2.80;99.90;;;;;;5036697;28;19929;-68
2024/01/24 01:10:40;;;;;;;;;;;2.80;99.90;;;;;;5030586;28;19952;-60
2024/01/24 01:13:07;;;;;;;;;;;2.80;99.90;;;;;;5032040;28;19979;-60
2024/01/24 01:15:34;;;;;;;;;;;2.80;99.90;;;;;;5029568;28;20062;-66
2024/01/24 01:18:01;;;;;;;;;;;2.80;99.90;;;;;;5030239;28;20391;-64
2024/01/24 01:20:27;;;;;;;;;;;2.70;99.90;;;;;;5030627;28;19929;-60
2024/01/24 01:22:54;;;;;;;;;;;2.70;99.90;;;;;;5033310;28;20012;-62
2024/01/24 01:25:21;;;;;;;;;;;2.70;99.90;;;;;;5032707;28;19940;-61
2024/01/24 01:27:48;;;;;;;;;;;2.70;99.90;;;;;;5031582;28;19936;-60
2024/01/24 01:30:15;;;;;;;;;;;2.70;99.90;;;;;;5036217;28;20482;-60
2024/01/24 01:32:43;;;;;;;;;;;2.70;99.90;;;;;;5034339;28;19964;-62
2024/01/24 01:35:10;;;;;;;;;;;2.70;99.90;;;;;;5032128;28;19933;-64
2024/01/24 01:37:38;;;;;;;;;;;2.70;99.90;;;;;;5034718;28;19929;-63
2024/01/24 01:40:06;;;;;;;;;;;2.70;99.90;;;;;;5031263;28;19964;-61
2024/01/24 01:42:33;;;;;;;;;;;2.70;99.90;;;;;;5035048;28;19925;-62
2024/01/24 01:45:00;;;;;;;;;;;2.70;99.90;;;;;;5029847;28;19935;-62
2024/01/24 01:47:27;;;;;;;;;;;2.70;99.90;;;;;;5031162;28;19925;-62
2024/01/24 01:49:53;;;;;;;;;;;2.70;99.90;;;;;;5034126;28;19929;-59
2024/01/24 01:52:21;;;;;;;;;;;2.70;99.90;;;;;;5033233;28;19933;-64
2024/01/24 01:54:49;;;;;;;;;;;2.70;99.90;;;;;;5033252;28;19972;-63
2024/01/24 01:57:16;;;;;;;;;;;2.70;99.90;;;;;;5033061;28;19941;-62
2024/01/24 01:59:44;;;;;;;;;;;2.70;99.90;;;;;;5029256;28;19940;-60
2024/01/24 02:02:11;;;;;;;;;;;2.70;99.90;;;;;;5027786;28;19929;-63
2024/01/24 02:04:38;;;;;;;;;;;2.80;99.90;;;;;;5030339;28;19933;-62
2024/01/24 02:07:05;;;;;;;;;;;2.80;99.90;;;;;;5032424;28;19978;-59
2024/01/24 02:09:32;;;;;;;;;;;2.80;99.90;;;;;;5030221;28;19925;-64
2024/01/24 02:11:59;;;;;;;;;;;2.80;99.90;;;;;;5030907;28;19925;-60
2024/01/24 02:14:26;;;;;;;;;;;2.90;99.90;;;;;;5031265;28;19926;-60
2024/01/24 02:16:53;;;;;;;;;;;2.90;99.90;;;;;;5034188;28;19940;-60
2024/01/24 02:19:21;;;;;;;;;;;2.90;99.90;;;;;;5032898;28;19936;-60
2024/01/24 02:21:48;;;;;;;;;;;2.90;99.90;;;;;;5035571;28;20003;-63
2024/01/24 02:24:14;;;;;;;;;;;2.90;99.90;;;;;;5029831;28;19928;-61
2024/01/24 02:26:41;;;;;;;;;;;2.90;99.90;;;;;;5033116;28;19929;-61
2024/01/24 02:29:08;;;;;;;;;;;3.00;99.90;;;;;;5063119;28;19976;-60
2024/01/24 02:31:35;;;;;;;;;;;3.00;99.90;;;;;;5034003;28;19925;-59
2024/01/24 02:34:02;;;;;;;;;;;2.90;99.90;;;;;;5024677;28;19925;-64
2024/01/24 02:36:29;;;;;;;;;;;3.00;99.90;;;;;;5034645;28;20390;-60
2024/01/24 02:38:56;;;;;;;;;;;3.00;99.90;;;;;;5035541;28;19925;-64
2024/01/24 02:41:24;;;;;;;;;;;3.00;99.90;;;;;;5031158;28;19936;-59
2024/01/24 02:43:51;;;;;;;;;;;3.00;99.90;;;;;;5024239;28;19988;-61
2024/01/24 02:46:18;;;;;;;;;;;3.10;99.90;;;;;;5035236;28;19925;-62
2024/01/24 02:48:45;;;;;;;;;;;3.10;99.90;;;;;;5032746;28;19932;-60
2024/01/24 02:51:12;;;;;;;;;;;3.10;99.90;;;;;;5028411;28;19929;-62
2024/01/24 02:53:38;;;;;;;;;;;3.10;99.90;;;;;;5027871;28;19925;-66
2024/01/24 02:56:05;;;;;;;;;;;3.10;99.90;;;;;;5028987;28;19991;-61
2024/01/24 02:58:32;;;;;;;;;;;3.20;99.90;;;;;;5033068;28;19963;-59
2024/01/24 03:00:59;;;;;;;;;;;3.10;99.90;;;;;;5032258;28;20300;-60
2024/01/24 03:03:26;;;;;;;;;;;3.20;99.90;;;;;;5031402;28;20318;-65
2024/01/24 03:05:53;;;;;;;;;;;3.20;99.90;;;;;;5028555;28;20470;-62
2024/01/24 03:08:20;;;;;;;;;;;3.20;99.90;;;;;;5034489;28;19924;-61
2024/01/24 03:10:47;;;;;;;;;;;3.20;99.90;;;;;;5026203;28;19925;-60
2024/01/24 03:13:14;;;;;;;;;;;3.20;99.90;;;;;;5025063;28;19926;-60
2024/01/24 03:15:41;;;;;;;;;;;3.20;99.90;;;;;;5034487;28;19933;-66
2024/01/24 03:18:07;;;;;;;;;;;3.20;99.90;;;;;;5033835;28;20441;-62
2024/01/24 03:20:36;;;;;;;;;;;3.20;99.90;;;;;;5036329;28;21832;-63
2024/01/24 03:23:03;;;;;;;;;;;3.20;99.90;;;;;;5036181;28;20590;-63
2024/01/24 03:25:31;;;;;;;;;;;3.20;99.90;;;;;;5035966;28;19936;-62
2024/01/24 03:27:58;;;;;;;;;;;3.20;99.90;;;;;;5033894;28;19933;-60
2024/01/24 03:30:25;;;;;;;;;;;3.20;99.90;;;;;;5033911;28;20425;-59
2024/01/24 03:32:52;;;;;;;;;;;3.20;99.90;;;;;;5036721;28;19929;-62
2024/01/24 03:35:19;;;;;;;;;;;3.20;99.90;;;;;;5037901;28;19929;-63
2024/01/24 03:37:45;;;;;;;;;;;3.20;99.90;;;;;;5036589;28;19928;-64
2024/01/24 03:40:12;;;;;;;;;;;3.20;99.90;;;;;;5032595;28;19928;-60
2024/01/24 03:42:40;;;;;;;;;;;3.10;99.90;;;;;;5038566;28;19933;-63
2024/01/24 03:45:07;;;;;;;;;;;3.10;99.90;;;;;;5037594;28;19936;-59
2024/01/24 03:47:34;;;;;;;;;;;3.10;99.90;;;;;;5034385;28;19929;-59
2024/01/24 03:50:01;;;;;;;;;;;3.10;99.90;;;;;;5063768;28;19929;-63
2024/01/24 03:52:28;;;;;;;;;;;3.00;99.90;;;;;;5032029;28;19975;-60
2024/01/24 03:54:54;;;;;;;;;;;3.00;99.90;;;;;;5035629;28;19963;-61
2024/01/24 03:57:22;;;;;;;;;;;3.00;99.90;;;;;;5031803;28;19945;-60
2024/01/24 03:59:49;;;;;;;;;;;3.00;99.90;;;;;;5036579;28;20028;-63
2024/01/24 04:02:16;;;;;;;;;;;2.90;99.90;;;;;;5031535;28;19933;-61
2024/01/24 04:04:43;;;;;;;;;;;2.90;99.90;;;;;;5041747;28;19929;-61
2024/01/24 04:07:10;;;;;;;;;;;2.90;99.90;;;;;;5035320;28;19926;-61
2024/01/24 04:09:37;;;;;;;;;;;2.90;99.90;;;;;;5034918;28;19926;-59
2024/01/24 04:12:04;;;;;;;;;;;2.90;99.90;;;;;;5033823;28;19933;-63
2024/01/24 04:14:31;;;;;;;;;;;2.90;99.90;;;;;;5031587;28;20490;-60
2024/01/24 04:16:58;;;;;;;;;;;2.80;99.90;;;;;;5035082;28;19929;-60
2024/01/24 04:19:25;;;;;;;;;;;2.80;99.90;;;;;;5029786;28;20275;-60
2024/01/24 04:21:52;;;;;;;;;;;2.80;99.90;;;;;;5037190;28;19924;-65
2024/01/24 04:24:19;;;;;;;;;;;2.70;99.90;;;;;;5035350;28;19932;-61
2024/01/24 04:26:46;;;;;;;;;;;2.70;99.90;;;;;;5041160;28;19929;-70
2024/01/24 04:29:13;;;;;;;;;;;2.70;99.90;;;;;;5031774;28;19931;-63
2024/01/24 04:31:41;;;;;;;;;;;2.70;99.90;;;;;;5038255;28;19936;-62
2024/01/24 04:34:08;;;;;;;;;;;2.60;99.90;;;;;;5035639;28;19983;-60
2024/01/24 04:36:35;;;;;;;;;;;2.60;99.90;;;;;;5036760;28;19925;-70
2024/01/24 04:39:02;;;;;;;;;;;2.50;99.90;;;;;;5031095;28;19929;-62
2024/01/24 04:41:29;;;;;;;;;;;2.50;99.90;;;;;;5036813;28;19968;-60
2024/01/24 04:43:56;;;;;;;;;;;2.40;99.90;;;;;;5036285;28;20361;-64
2024/01/24 04:46:22;;;;;;;;;;;2.40;99.90;;;;;;5032966;28;20043;-61
2024/01/24 04:48:49;;;;;;;;;;;2.30;99.90;;;;;;5031671;28;19933;-59
2024/01/24 04:51:16;;;;;;;;;;;2.30;99.90;;;;;;5033064;28;19932;-61
2024/01/24 04:53:43;;;;;;;;;;;2.20;99.90;;;;;;5032099;28;19937;-65
2024/01/24 04:56:10;;;;;;;;;;;2.20;99.90;;;;;;5026807;28;19925;-62
2024/01/24 04:58:39;;;;;;;;;;;2.10;99.90;;;;;;5031151;28;19936;-61
2024/01/24 05:01:06;;;;;;;;;;;2.00;99.90;;;;;;5027864;28;19925;-60
2024/01/24 05:03:33;;;;;;;;;;;2.00;99.90;;;;;;5029647;28;19932;-62
2024/01/24 05:06:00;;;;;;;;;;;1.90;99.90;;;;;;5033434;28;19965;-59
2024/01/24 05:08:36;;;;;;;;;;;1.90;99.90;;;;;;5031057;28;19929;-66
2024/01/24 05:11:03;;;;;;;;;;;1.80;99.90;;;;;;5031261;28;20004;-62
2024/01/24 05:13:30;;;;;;;;;;;1.70;99.90;;;;;;5032512;28;19925;-60
2024/01/24 05:15:58;;;;;;;;;;;1.70;99.90;;;;;;5032589;28;20644;-60
2024/01/24 05:18:24;;;;;;;;;;;1.60;99.90;;;;;;5032473;28;19999;-61
2024/01/24 05:20:52;;;;;;;;;;;1.50;99.90;;;;;;5033316;28;19929;-59
2024/01/24 05:23:19;;;;;;;;;;;1.40;99.90;;;;;;5043181;28;19944;-62
2024/01/24 05:25:45;;;;;;;;;;;1.40;99.90;;;;;;5024746;28;19932;-63
2024/01/24 05:28:12;;;;;;;;;;;1.40;99.90;;;;;;5028814;28;19976;-60
2024/01/24 05:30:39;;;;;;;;;;;1.40;99.90;;;;;;5034301;28;19925;-63
2024/01/24 05:33:06;;;;;;;;;;;1.30;99.90;;;;;;5035317;28;19924;-62
2024/01/24 05:35:33;;;;;;;;;;;1.30;99.90;;;;;;5034507;28;19925;-59
2024/01/24 05:38:00;;;;;;;;;;;1.30;99.90;;;;;;5030344;28;19986;-68
2024/01/24 05:40:27;;;;;;;;;;;1.20;99.90;;;;;;5029905;28;20429;-59
2024/01/24 05:42:53;;;;;;;;;;;1.20;99.90;;;;;;5033896;28;19933;-61
2024/01/24 05:45:22;;;;;;;;;;;1.20;99.90;;;;;;5034992;28;19948;-61
2024/01/24 05:47:49;;;;;;;;;;;1.10;99.90;;;;;;5037780;28;19933;-61
2024/01/24 05:50:16;;;;;;;;;;;1.10;99.90;;;;;;5030370;28;20474;-61
2024/01/24 05:52:43;;;;;;;;;;;1.10;99.90;;;;;;5036179;28;19936;-61
2024/01/24 05:55:13;;;;;;;;;;;1.10;99.90;;;;;;5039010;28;19929;-60
2024/01/24 05:57:40;;;;;;;;;;;1.10;99.90;;;;;;5033401;28;19929;-60
2024/01/24 06:00:09;;;;;;;;;;;1.10;99.90;;;;;;5033899;28;19925;-61
2024/01/24 06:02:36;;;;;;;;;;;1.10;99.90;;;;;;5029625;28;20474;-60
2024/01/24 06:05:04;;;;;;;;;;;1.00;99.90;;;;;;5031452;28;19925;-64
2024/01/24 06:07:31;;;;;;;;;;;1.10;99.90;;;;;;5033192;28;19925;-61
2024/01/24 06:09:58;;;;;;;;;;;1.10;99.90;;;;;;5032192;28;19931;-60
2024/01/24 06:12:25;;;;;;;;;;;1.00;99.90;;;;;;5029921;28;19937;-63
2024/01/24 06:14:54;;;;;;;;;;;1.00;99.90;;;;;;5028221;28;20031;-59
2024/01/24 06:17:22;;;;;;;;;;;1.00;99.90;;;;;;5040546;28;19932;-59
2024/01/24 06:19:52;;;;;;;;;;;1.10;99.90;;;;;;5033601;28;20020;-65
2024/01/24 06:22:19;;;;;;;;;;;1.00;99.90;;;;;;5031900;28;19935;-59
2024/01/24 06:24:46;;;;;;;;;;;1.00;99.90;;;;;;5030040;28;19924;-60
2024/01/24 06:27:13;;;;;;;;;;;1.00;99.90;;;;;;5031288;28;19939;-62
2024/01/24 06:29:40;;;;;;;;;;;1.00;99.90;;;;;;5049604;28;20346;-59
2024/01/24 06:32:27;;;;;;;;;;;1.00;99.90;;;;;;5029048;28;20402;-61
2024/01/24 06:34:54;;;;;;;;;;;1.00;99.90;;;;;;5032159;28;19929;-63
2024/01/24 06:37:21;;;;;;;;;;;1.00;99.90;;;;;;5027754;28;19933;-59
2024/01/24 06:39:48;;;;;;;;;;;1.00;99.90;;;;;;5038116;28;20040;-63
2024/01/24 06:42:15;;;;;;;;;;;1.00;99.90;;;;;;5028690;28;19979;-61
2024/01/24 06:44:42;;;;;;;;;;;1.00;99.90;;;;;;5035286;28;19926;-59
2024/01/24 06:47:11;;;;;;;;;;;1.00;99.90;;;;;;5026131;28;19929;-61
2024/01/24 06:49:38;;;;;;;;;;;1.00;99.90;;;;;;5032176;28;19983;-60
2024/01/24 06:52:05;;;;;;;;;;;1.00;99.90;;;;;;5039537;28;19960;-61
2024/01/24 06:54:35;;;;;;;;;;;1.00;99.90;;;;;;5037897;28;19960;-65
2024/01/24 06:57:03;;;;;;;;;;;1.00;99.90;;;;;;5030905;28;19926;-62
2024/01/24 06:59:31;;;;;;;;;;;1.00;99.90;;;;;;5032626;28;20020;-60
2024/01/24 07:01:59;;;;;;;;;;;1.00;99.90;;;;;;5037386;28;19957;-63
2024/01/24 07:04:26;;;;;;;;;;;1.00;99.90;;;;;;5037637;28;19952;-60
2024/01/24 07:06:53;;;;;;;;;;;1.00;99.90;;;;;;5038322;28;20428;-59
2024/01/24 07:09:20;;;;;;;;;;;1.00;99.90;;;;;;5038387;28;19935;-61
2024/01/24 07:11:47;;;;;;;;;;;1.00;99.90;;;;;;5031290;28;19925;-62
2024/01/24 07:14:14;;;;;;;;;;;1.00;99.90;;;;;;5028585;28;19925;-60
2024/01/24 07:16:43;;;;;;;;;;;1.00;99.90;;;;;;5035223;28;19936;-60
2024/01/24 07:19:09;;;;;;;;;;;1.00;99.90;;;;;;5036626;28;19929;-60
2024/01/24 07:21:36;;;;;;;;;;;1.00;99.90;;;;;;5035359;28;19931;-62
2024/01/24 07:24:03;;;;;;;;;;;1.00;99.90;;;;;;5036926;28;20019;-64
2024/01/24 07:26:30;;;;;;;;;;;1.00;99.90;;;;;;5034572;28;20014;-61
2024/01/24 07:28:57;;;;;;;;;;;1.10;99.90;;;;;;5036104;28;19957;-59
2024/01/24 07:31:24;;;;;;;;;;;1.10;99.90;;;;;;5037268;28;19933;-61
2024/01/24 07:33:51;;;;;;;;;;;1.10;99.90;;;;;;5042660;28;20267;-64
2024/01/24 07:36:21;;;;;;;;;;;1.10;99.90;;;;;;5041312;28;19994;-60
2024/01/24 07:38:48;;;;;;;;;;;1.10;99.90;;;;;;5036535;28;19929;-60
2024/01/24 07:41:14;;;;;;;;;;;1.20;99.90;;;;;;5034293;28;20010;-63
2024/01/24 07:43:41;;;;;;;;;;;1.20;99.90;;;;;;5033493;28;19956;-60
2024/01/24 07:46:09;;;;;;;;;;;1.30;99.90;;;;;;5030384;28;19935;-59
2024/01/24 07:48:36;;;;;;;;;;;1.30;99.90;;;;;;5040958;28;20024;-60
2024/01/24 07:51:04;;;;;;;;;;;1.30;99.90;;;;;;5038494;28;20637;-61
2024/01/24 07:53:31;;;;;;;;;;;1.40;99.90;;;;;;5034657;28;19929;-60
2024/01/24 07:56:03;;;;;;;;;;;1.40;99.90;;;;;;5032787;28;20409;-61
2024/01/24 07:58:47;;;;;;;;;;;1.50;99.90;;;;;;5035936;28;19995;-60
2024/01/24 08:01:17;;;;;;;;;;;1.50;99.90;;;;;;5029571;28;19979;-62
2024/01/24 08:03:44;;;;;;;;;;;1.50;99.90;;;;;;5034410;28;19931;-62
2024/01/24 08:06:14;;;;;;;;;;;1.70;99.90;;;;;;5032249;28;19925;-64
2024/01/24 08:08:41;;;;;;;;;;;1.70;99.90;;;;;;5029721;28;20379;-66
2024/01/24 08:11:08;;;;;;;;;;;1.80;99.90;;;;;;5031157;28;19932;-59
2024/01/24 08:13:35;;;;;;;;;;;1.90;99.90;;;;;;5031994;28;20488;-63
2024/01/24 08:16:02;;;;;;;;;;;1.90;99.90;;;;;;5036009;28;19999;-62
2024/01/24 08:18:29;;;;;;;;;;;1.90;99.90;;;;;;5032899;28;20016;-59
2024/01/24 08:20:57;;;;;;;;;;;2.00;99.90;;;;;;5033078;28;19970;-60
2024/01/24 08:23:25;;;;;;;;;;;2.10;99.90;;;;;;5034216;28;20016;-59
2024/01/24 08:26:04;;;;;;;;;;;2.10;99.90;;;;;;5034035;28;19936;-63
2024/01/24 08:28:31;;;;;;;;;;;2.20;99.90;;;;;;5033673;28;20465;-59
2024/01/24 08:30:58;;;;;;;;;;;2.20;99.90;;;;;;5036447;28;19928;-60
2024/01/24 08:33:25;;;;;;;;;;;2.30;99.90;;;;;;5036000;28;20434;-64
2024/01/24 08:35:52;;;;;;;;;;;2.40;99.90;;;;;;5035972;28;19925;-59
2024/01/24 08:38:19;;;;;;;;;;;2.50;99.90;;;;;;5030364;28;19928;-59
2024/01/24 08:40:46;;;;;;;;;;;2.50;99.90;;;;;;5034833;28;19977;-60
2024/01/24 08:43:13;;;;;;;;;;;2.70;99.90;;;;;;5033489;28;19975;-60
2024/01/24 08:45:40;;;;;;;;;;;2.80;99.90;;;;;;5041781;28;19929;-61
2024/01/24 08:48:07;;;;;;;;;;;2.80;99.90;;;;;;5031641;28;19965;-61
2024/01/24 08:50:34;;;;;;;;;;;2.90;99.90;;;;;;5034220;28;19933;-62
2024/01/24 08:53:00;;;;;;;;;;;3.00;99.90;;;;;;5034931;28;19983;-66
2024/01/24 08:55:27;;;;;;;;;;;3.10;99.90;;;;;;5033485;28;19929;-61
2024/01/24 08:57:55;;;;;;;;;;;3.20;99.90;;;;;;5032984;28;19929;-59
2024/01/24 09:00:22;;;;;;;;;;;3.20;99.90;;;;;;5029915;28;20002;-62
2024/01/24 09:02:49;;;;;;;;;;;3.20;99.90;;;;;;5037633;28;20036;-62
2024/01/24 09:05:19;;;;;;;;;;;3.30;99.90;;;;;;5029871;28;19968;-62
2024/01/24 09:07:46;;;;;;;;;;;3.30;99.90;;;;;;5035427;28;19932;-60
2024/01/24 09:10:13;;;;;;;;;;;3.40;99.90;;;;;;5032171;28;19929;-60
2024/01/24 09:12:40;;;;;;;;;;;3.40;99.90;;;;;;5032493;28;19925;-59
2024/01/24 09:15:07;;;;;;;;;;;3.40;99.90;;;;;;5039398;28;19928;-61
2024/01/24 09:17:35;;;;;;;;;;;3.50;99.90;;;;;;5030718;28;19926;-60
2024/01/24 09:20:03;;;;;;;;;;;3.50;99.90;;;;;;5040450;28;19959;-67
2024/01/24 09:22:30;;;;;;;;;;;3.60;99.90;;;;;;5032797;28;19979;-60
2024/01/24 09:24:57;;;;;;;;;;;3.60;99.90;;;;;;5036288;28;19924;-62
2024/01/24 09:27:24;;;;;;;;;;;3.60;99.90;;;;;;5040596;28;20373;-62
2024/01/24 09:29:51;;;;;;;;;;;3.70;99.90;;;;;;5041169;28;19998;-61
2024/01/24 09:32:18;;;;;;;;;;;3.70;99.90;;;;;;5036083;28;19964;-61
2024/01/24 09:34:45;;;;;;;;;;;3.80;99.90;;;;;;5031928;28;19932;-61
2024/01/24 09:37:12;;;;;;;;;;;3.80;99.90;;;;;;5035559;28;19925;-60
2024/01/24 09:39:39;;;;;;;;;;;3.80;99.90;;;;;;5038161;28;19932;-59
2024/01/24 09:42:12;;;;;;;;;;;3.80;99.90;;;;;;5033292;28;19958;-63
2024/01/24 09:44:38;;;;;;;;;;;3.90;99.90;;;;;;5032082;28;19929;-64
2024/01/24 09:47:07;;;;;;;;;;;3.90;99.90;;;;;;5030688;28;19939;-63
2024/01/24 09:49:36;;;;;;;;;;;4.00;99.90;;;;;;5034719;28;19982;-60
2024/01/24 09:52:04;;;;;;;;;;;4.00;99.90;;;;;;5035021;28;20016;-59
2024/01/24 09:54:32;;;;;;;;;;;4.10;99.90;;;;;;5033766;28;19926;-59
2024/01/24 09:57:00;;;;;;;;;;;4.10;99.90;;;;;;5033732;28;19939;-65
2024/01/24 09:59:27;;;;;;;;;;;4.20;99.90;;;;;;5027695;28;20364;-66
2024/01/24 10:01:54;;;;;;;;;;;4.30;99.90;;;;;;5027947;28;20028;-62
2024/01/24 10:04:21;;;;;;;;;;;4.30;99.90;;;;;;5030451;28;19929;-62
2024/01/24 10:06:48;;;;;;;;;;;4.50;99.90;;;;;;5036113;28;19936;-66
2024/01/24 10:09:16;;;;;;;;;;;4.70;99.90;;;;;;5028596;28;19931;-63
2024/01/24 10:11:42;;;;;;;;;;;4.80;99.90;;;;;;5033706;28;20525;-64
2024/01/24 10:14:11;;;;;;;;;;;4.80;99.90;;;;;;5033595;28;19932;-61
2024/01/24 10:16:37;;;;;;;;;;;4.90;99.90;;;;;;5029440;28;20295;-62
2024/01/24 10:19:04;;;;;;;;;;;4.90;99.90;;;;;;5031821;28;19937;-61
2024/01/24 10:21:31;;;;;;;;;;;4.90;99.90;;;;;;5032906;28;20012;-60
2024/01/24 10:23:59;;;;;;;;;;;4.90;99.90;;;;;;5029521;28;19968;-63
2024/01/24 10:26:26;;;;;;;;;;;4.90;99.90;;;;;;5032249;28;19932;-60
2024/01/24 10:28:54;;;;;;;;;;;4.90;99.90;;;;;;5031272;28;19995;-62
2024/01/24 10:31:23;;;;;;;;;;;4.90;99.90;;;;;;5035478;28;19932;-61
2024/01/24 10:33:52;;;;;;;;;;;5.00;99.90;;;;;;5032135;28;20047;-61
2024/01/24 10:36:20;;;;;;;;;;;5.00;99.90;;;;;;5039532;28;20006;-65
2024/01/24 10:38:58;;;;;;;;;;;5.10;99.90;;;;;;5031959;28;19925;-60
2024/01/24 10:41:29;;;;;;;;;;;5.20;99.90;;;;;;5034438;28;19979;-60
2024/01/24 10:43:56;;;;;;;;;;;5.20;99.90;;;;;;5031889;28;20051;-62
2024/01/24 10:46:23;;;;;;;;;;;5.20;99.90;;;;;;5030735;28;19932;-73
2024/01/24 10:48:51;;;;;;;;;;;5.20;99.90;;;;;;5030689;28;19926;-60
2024/01/24 10:51:18;;;;;;;;;;;5.20;99.90;;;;;;5028758;28;19960;-61
2024/01/24 10:53:46;;;;;;;;;;;5.30;99.90;;;;;;5026445;28;19979;-61
2024/01/24 10:56:15;;;;;;;;;;;5.50;99.90;;;;;;5024933;28;20365;-63
2024/01/24 10:58:42;;;;;;;;;;;5.60;99.90;;;;;;5029503;28;19986;-60
2024/01/24 11:01:09;;;;;;;;;;;5.70;99.90;;;;;;5025762;28;20291;-60
2024/01/24 11:03:36;;;;;;;;;;;5.80;99.90;;;;;;5033144;28;20007;-62
2024/01/24 11:06:06;;;;;;;;;;;5.90;99.90;;;;;;5027070;28;19925;-60
2024/01/24 11:08:48;;;;;;;;;;;5.90;99.90;;;;;;5029722;28;20267;-62
2024/01/24 11:11:20;;;;;;;;;;;5.90;99.90;;;;;;5031382;28;20383;-63
2024/01/24 11:13:47;;;;;;;;;;;5.90;99.90;;;;;;5026846;28;19955;-63
2024/01/24 11:16:25;;;;;;;;;;;5.90;99.90;;;;;;5030964;28;19952;-61
2024/01/24 11:18:59;;;;;;;;;;;5.90;99.90;;;;;;5028087;28;20262;-60
2024/01/24 11:21:30;;;;;;;;;;;5.90;99.90;;;;;;5029150;28;19991;-64
2024/01/24 11:23:59;;;;;;;;;;;6.00;99.90;;;;;;5031232;28;19929;-60
2024/01/24 11:26:26;;;;;;;;;;;6.00;99.90;;;;;;5030581;28;19936;-62
2024/01/24 11:29:04;;;;;;;;;;;6.10;99.90;;;;;;5030296;28;19929;-63
2024/01/24 11:31:42;;;;;;;;;;;6.10;99.90;;;;;;5031695;28;19924;-62
2024/01/24 11:34:09;;;;;;;;;;;6.10;99.90;;;;;;5035886;28;20567;-61
2024/01/24 11:36:47;;;;;;;;;;;6.10;99.90;;;;;;5033317;28;19959;-62
2024/01/24 11:39:39;;;;;;;;;;;6.20;99.90;;;;;;5030403;28;19975;-61
2024/01/24 11:42:33;;;;;;;;;;;6.10;99.90;;;;;;5031449;28;19929;-63
2024/01/24 11:45:14;;;;;;;;;;;6.10;99.90;;;;;;5027555;28;20366;-62
2024/01/24 11:47:41;;;;;;;;;;;6.00;99.90;;;;;;5030290;28;19925;-62
2024/01/24 11:50:09;;;;;;;;;;;5.90;99.90;;;;;;5036935;28;20756;-62
2024/01/24 11:52:36;;;;;;;;;;;5.90;99.90;;;;;;5035577;28;19940;-61
2024/01/24 11:55:03;;;;;;;;;;;5.90;99.90;;;;;;5036658;28;20404;-61
2024/01/24 11:57:30;;;;;;;;;;;5.90;99.90;;;;;;5033975;28;20260;-61
2024/01/24 11:59:57;;;;;;;;;;;5.90;99.90;;;;;;5032567;28;20011;-62
2024/01/24 12:02:24;;;;;;;;;;;6.00;99.90;;;;;;5031948;28;19936;-64
2024/01/24 12:04:51;;;;;;;;;;;6.00;99.90;;;;;;5035726;28;19929;-65
2024/01/24 12:07:18;;;;;;;;;;;6.00;99.90;;;;;;5049967;28;20429;-63
2024/01/24 12:09:45;;;;;;;;;;;6.10;99.90;;;;;;5034282;28;20268;-61
2024/01/24 12:12:12;;;;;;;;;;;6.10;99.90;;;;;;5033079;28;19929;-62
2024/01/24 12:14:40;;;;;;;;;;;6.10;99.90;;;;;;5033694;28;19925;-61
2024/01/24 12:17:08;;;;;;;;;;;6.10;99.90;;;;;;5039389;28;19976;-61
2024/01/24 12:19:35;;;;;;;;;;;6.10;99.90;;;;;;5032395;28;19925;-62
2024/01/24 12:22:08;;;;;;;;;;;6.20;99.90;;;;;;5034198;28;20298;-62
2024/01/24 12:24:42;;;;;;;;;;;6.20;99.90;;;;;;5030063;28;19936;-63
2024/01/24 12:27:09;;;;;;;;;;;6.30;99.90;;;;;;5036092;28;19929;-62
2024/01/24 12:29:36;;;;;;;;;;;6.30;99.90;;;;;;5033490;28;19965;-61
2024/01/24 12:32:06;;;;;;;;;;;6.30;99.90;;;;;;5038442;28;19990;-67
2024/01/24 12:34:34;;;;;;;;;;;6.30;99.90;;;;;;5032109;28;19928;-63
2024/01/24 12:37:01;;;;;;;;;;;6.20;99.90;;;;;;5036244;28;19932;-64
2024/01/24 12:39:29;;;;;;;;;;;6.20;99.90;;;;;;5032721;28;19928;-64
2024/01/24 12:41:56;;;;;;;;;;;6.20;99.90;;;;;;5034375;28;19956;-62
2024/01/24 12:44:23;;;;;;;;;;;6.20;99.90;;;;;;5031532;28;19924;-68
2024/01/24 12:46:57;;;;;;;;;;;6.10;99.90;;;;;;5027325;28;20023;-64
2024/01/24 12:49:25;;;;;;;;;;;6.10;99.90;;;;;;5033754;28;19979;-63
2024/01/24 12:51:53;;;;;;;;;;;6.10;99.90;;;;;;5033720;28;19925;-59
2024/01/24 12:54:20;;;;;;;;;;;6.00;99.90;;;;;;5028424;28;20755;-60
2024/01/24 12:56:48;;;;;;;;;;;6.00;99.90;;;;;;5032351;28;20294;-67
2024/01/24 12:59:16;;;;;;;;;;;5.90;99.90;;;;;;5043761;28;20291;-64
2024/01/24 13:01:43;;;;;;;;;;;5.90;99.90;;;;;;5031994;28;19998;-61
2024/01/24 13:04:10;;;;;;;;;;;6.00;99.90;;;;;;5037703;28;19972;-61
2024/01/24 13:06:37;;;;;;;;;;;6.10;99.90;;;;;;5030177;28;20306;-69
2024/01/24 13:09:05;;;;;;;;;;;6.20;99.90;;;;;;5033193;28;20024;-63
2024/01/24 13:11:32;;;;;;;;;;;6.30;99.90;;;;;;5032498;28;19925;-59
2024/01/24 13:13:59;;;;;;;;;;;6.40;99.90;;;;;;5033089;28;20497;-60
2024/01/24 13:16:26;;;;;;;;;;;6.50;99.90;;;;;;5037268;28;20012;-62
2024/01/24 13:18:52;;;;;;;;;;;6.50;99.90;;;;;;5033354;28;19959;-62
2024/01/24 13:21:20;;;;;;;;;;;6.50;99.90;;;;;;5032386;28;19932;-61
2024/01/24 13:23:47;;;;;;;;;;;6.60;99.90;;;;;;5032752;28;20670;-60
2024/01/24 13:26:14;;;;;;;;;;;6.60;99.90;;;;;;5033931;28;19951;-62
2024/01/24 13:28:41;;;;;;;;;;;6.50;99.90;;;;;;5029303;28;19933;-61
2024/01/24 13:31:08;;;;;;;;;;;6.50;99.90;;;;;;5033375;28;19926;-60
2024/01/24 13:33:34;;;;;;;;;;;6.50;99.90;;;;;;5037863;28;20299;-60
2024/01/24 13:36:05;;;;;;;;;;;6.50;99.90;;;;;;5033241;28;19929;-67
2024/01/24 13:38:32;;;;;;;;;;;6.50;99.90;;;;;;5034452;28;19929;-63
2024/01/24 13:40:59;;;;;;;;;;;6.50;99.90;;;;;;5030594;28;20020;-61
2024/01/24 13:43:26;;;;;;;;;;;6.50;99.90;;;;;;5028295;28;20565;-63
2024/01/24 13:45:53;;;;;;;;;;;6.60;99.90;;;;;;5034826;28;19925;-60
2024/01/24 13:48:20;;;;;;;;;;;6.50;99.90;;;;;;5033961;28;19932;-62
2024/01/24 13:50:47;;;;;;;;;;;6.50;99.90;;;;;;5031444;28;19925;-68
2024/01/24 13:53:14;;;;;;;;;;;6.50;99.90;;;;;;5032012;28;19947;-61
2024/01/24 13:55:41;;;;;;;;;;;6.50;99.90;;;;;;5034057;28;19929;-60
2024/01/24 13:58:08;;;;;;;;;;;6.50;99.90;;;;;;5034113;28;19926;-59
2024/01/24 14:00:35;;;;;;;;;;;6.50;99.90;;;;;;5034753;28;20023;-59
2024/01/24 14:03:02;;;;;;;;;;;6.50;99.90;;;;;;5029368;28;20410;-63
2024/01/24 14:05:29;;;;;;;;;;;6.40;99.90;;;;;;5028939;28;19925;-59
2024/01/24 14:07:56;;;;;;;;;;;6.50;99.90;;;;;;5037750;28;19929;-59
2024/01/24 14:10:23;;;;;;;;;;;6.50;99.90;;;;;;5027690;28;19940;-64
2024/01/24 14:12:50;;;;;;;;;;;6.60;99.90;;;;;;5031351;28;19925;-60
2024/01/24 14:15:18;;;;;;;;;;;6.60;99.90;;;;;;5041492;28;19934;-60
2024/01/24 14:17:59;;;;;;;;;;;6.60;99.90;;;;;;5031563;28;19999;-65
2024/01/24 14:20:28;;;;;;;;;;;6.60;99.90;;;;;;5030108;28;20196;-60
2024/01/24 14:22:55;;;;;;;;;;;6.60;99.90;;;;;;5037175;28;20426;-61
2024/01/24 14:25:22;;;;;;;;;;;6.60;99.90;;;;;;5029536;28;19925;-63
2024/01/24 14:27:49;;;;;;;;;;;6.50;99.90;;;;;;5036013;28;19925;-62
2024/01/24 14:30:16;;;;;;;;;;;6.50;99.90;;;;;;5036043;28;19944;-62
2024/01/24 14:32:43;;;;;;;;;;;6.50;99.90;;;;;;5035878;28;19936;-62
2024/01/24 14:35:13;;;;;;;;;;;6.40;99.90;;;;;;5033206;28;19964;-63